Skip Navigation Links Skip Navigation Links

Current Weather

Unalakleet, Alaska

For information only: do not use for flight planning or navigation.
Latest weather
Observation time Friday, December 3, 2021 12:56 AM AKST
Local time Friday, December 3, 2021 1:43 AM AKST
Flight conditions Visual Meteorological Conditions
Winds
Wind direction East (80°)
Wind speed 25 mph
Visibility 8 mi.
Sky condition
Ceiling unlimited
Sky clear
Temperature -6°F
Dewpoint -12°F
Altimeter 30.42 in.Hg
Derived measurements
Relative humidity 75%
Wind chill -32°F
Density altitude -5179 ft.
Sea-level pressure 30.43 in.Hg
Remarks
Fully automated report.
Automated weather observing station with precipitation discriminator.
Freezing rain sensor not operating.
METAR PAUN 030956Z AUTO 08022KT 8SM CLR M21/M24 A3042 RMK AO2 SLP305 T12111244 FZRANO

Settings

Location code

InnerDrive.Weather 4.0.6770.0 Release CLR 4.0.30319.42000
Copyright ©2018 Inner Drive Technology. All rights reserved. Portions Copyright ©1986-2018 David Braverman.

Find weather

Site navigation


Skip Navigation Links

Place info

Page info

PayPal - The safer, easier way to pay online!

Return home.

Copyright ©2021 Inner Drive Technology. Purveyors of fine, hand-crafted computer software. Page printed 2021-12-03T10:43:49 UTC.